Aérodrome :
LOGIN :

S'inscrire | Disclaimer

   EN    FR    IT 

 










Légende :    VFR   VFR Marginal   IFR   IFR Intensif   IFR Très Intensif
Visi : 
Plafond : 
>= 8 km
>= 3000ft
5 à 8 km
1000 à 3000 ft
1500m à 5 km
500 à 1000 ft
800 à 1500m
200 à 500 ft
< 800m
< 200 ft
Symboles :   Orages  Brouillard  Fortes neiges  Fortes précipitations  Vent > 20 kt
SIGMETs :   Divers  Orages  Givrage  Turbulence  Onde Orograph.  Cendres Volcan.






- Altitude de l'aérodrome : 17 ft
- Code IATA : DND


EGPN - Dundee

DERNIER METAR :
  • 161950Z 35003KT 320V040 9999 VCSH FEW030 SCT045 14/09 Q0998

METARs EXPIRÉS :
  • 161920Z VRB02KT 9999 FEW030 SCT045 14/09 Q0998
  • 161850Z 32003KT 290V030 9999 VCSH FEW010 SCT030 BKN048 15/11 Q0997
  • 161820Z 28003KT 260V320 9999 FEW010 SCT030 15/12 Q0997
  • 161750Z 25003KT 9999 FEW010 SCT040 15/12 Q0997
  • 161720Z VRB01KT 9999 FEW010 BKN040 15/12 Q0996
  • 161650Z 30003KT 270V340 9999 FEW010 BKN040 15/11 Q0996

Prévision TAF périmée.



MET'MAP, la Météo Aéronautique d'un coup d'oeil ! - Copyright ORBIFLY Décembre 2007 - Disclaimer

ORBIFLY MET'MAP TEAM :

Programmation & Développement : Alexandra Zaïnal
Sur une idée originale de : Baudouin d'Aumeries
Soutien technique & logistique : Manuel Goepfert
Assistance : Marc-Olivier Méhu




SOURCES & CREDITS :

   NOAA